createdAt,value
2023-02-16T00:00:29.911Z,102577.09
2023-02-16T00:02:35.436Z,102582.28
2023-02-16T00:04:40.440Z,102585.75
2023-02-16T00:06:45.923Z,102582.34
2023-02-16T00:08:53.106Z,102585.84
2023-02-16T00:11:10.424Z,102586.59
2023-02-16T00:13:40.403Z,102575.28
2023-02-16T00:15:46.181Z,102577.91
2023-02-16T00:17:51.138Z,102577.03
2023-02-16T00:19:56.171Z,102572.63
2023-02-16T00:22:02.990Z,102583.16
2023-02-16T00:24:08.481Z,102577.94
2023-02-16T00:26:18.646Z,102578.75
2023-02-16T00:28:26.020Z,102571.78
2023-02-16T00:30:31.934Z,102569.25
2023-02-16T00:32:36.800Z,102570.91
2023-02-16T00:34:46.856Z,102574.41
2023-02-16T00:36:52.195Z,102577.91
2023-02-16T00:38:58.281Z,102562.31
2023-02-16T00:41:03.757Z,102574.41
2023-02-16T00:43:09.905Z,102569.97
2023-02-16T00:45:24.828Z,102559.56
2023-02-16T00:47:35.177Z,102555.28
2023-02-16T00:49:40.106Z,102560.53
2023-02-16T00:51:45.804Z,102564.81
2023-02-16T00:53:52.770Z,102566.56
2023-02-16T00:55:58.487Z,102558.72
2023-02-16T00:58:10.072Z,102555.22
2023-02-16T01:00:23.518Z,102553.50
2023-02-16T01:02:32.241Z,102553.50
2023-02-16T01:04:37.370Z,102555.28
2023-02-16T01:06:54.592Z,102554.38
2023-02-16T01:09:22.587Z,102553.50
2023-02-16T01:11:28.102Z,102541.34
2023-02-16T01:13:36.508Z,102549.13
2023-02-16T01:15:42.201Z,102548.31
2023-02-16T01:17:49.759Z,102545.69
2023-02-16T01:19:54.739Z,102543.03
2023-02-16T01:22:02.576Z,102544.81
2023-02-16T01:24:07.583Z,102551.00
2023-02-16T01:26:17.762Z,102545.78
2023-02-16T01:28:25.735Z,102551.88
2023-02-16T01:30:31.392Z,102544.06
2023-02-16T01:32:36.612Z,102545.81
2023-02-16T01:34:44.320Z,102546.66
2023-02-16T01:36:51.042Z,102533.66
2023-02-16T01:38:55.987Z,102535.41
2023-02-16T01:41:22.642Z,102534.53
2023-02-16T01:43:32.471Z,102534.56
2023-02-16T01:45:44.712Z,102534.53
2023-02-16T01:47:55.489Z,102531.94
2023-02-16T01:50:04.721Z,102541.50
2023-02-16T01:52:21.531Z,102532.88
2023-02-16T01:54:37.817Z,102534.56
2023-02-16T01:56:53.826Z,102525.88
2023-02-16T01:59:03.672Z,102538.00
2023-02-16T02:01:39.551Z,102535.41
2023-02-16T02:03:58.406Z,102529.34
2023-02-16T02:06:07.176Z,102533.63
2023-02-16T02:08:28.960Z,102528.41
2023-02-16T02:10:43.189Z,102524.13
2023-02-16T02:12:54.800Z,102534.53
2023-02-16T02:15:00.384Z,102530.16
2023-02-16T02:17:09.417Z,102524.13
2023-02-16T02:19:14.864Z,102531.00
2023-02-16T02:21:54.278Z,102520.56
2023-02-16T02:24:23.132Z,102514.50
2023-02-16T02:26:59.061Z,102515.38
2023-02-16T02:29:19.227Z,102513.72
2023-02-16T02:31:39.886Z,102505.91
2023-02-16T02:33:57.704Z,102503.31
2023-02-16T02:36:20.296Z,102496.34
2023-02-16T02:38:30.863Z,102485.06
2023-02-16T02:40:50.755Z,102489.44
2023-02-16T02:43:07.559Z,102482.53
2023-02-16T02:45:21.418Z,102481.69
2023-02-16T02:47:26.618Z,102482.53
2023-02-16T02:49:35.047Z,102473.84
2023-02-16T02:51:40.588Z,102483.41
2023-02-16T02:54:13.989Z,102485.16
2023-02-16T02:56:47.102Z,102478.22
2023-02-16T02:59:12.879Z,102481.72
2023-02-16T03:01:21.763Z,102481.75
2023-02-16T03:03:32.126Z,102477.38
2023-02-16T03:05:47.096Z,102473.00
2023-02-16T03:07:57.624Z,102473.00
2023-02-16T03:10:23.131Z,102470.41
2023-02-16T03:12:40.554Z,102462.59
2023-02-16T03:14:52.964Z,102479.13
2023-02-16T03:17:13.037Z,102482.59
2023-02-16T03:19:35.131Z,102478.28
2023-02-16T03:21:52.971Z,102480.88
2023-02-16T03:24:11.474Z,102476.56
2023-02-16T03:26:30.104Z,102466.97
2023-02-16T03:28:50.696Z,102470.53
2023-02-16T03:30:59.544Z,102474.00
2023-02-16T03:33:07.653Z,102476.56
2023-02-16T03:35:12.952Z,102474.00
2023-02-16T03:37:18.648Z,102473.13
2023-02-16T03:39:24.006Z,102471.34
2023-02-16T03:41:29.877Z,102472.25
2023-02-16T03:43:38.041Z,102467.88
2023-02-16T03:45:46.588Z,102467.03
2023-02-16T03:47:53.989Z,102461.78
2023-02-16T03:50:01.817Z,102456.56
2023-02-16T03:52:07.640Z,102452.22
2023-02-16T03:54:12.565Z,102447.03
2023-02-16T03:56:17.333Z,102450.47
2023-02-16T03:58:26.871Z,102455.69
2023-02-16T04:00:31.821Z,102460.91
2023-02-16T04:02:37.370Z,102464.41
2023-02-16T04:04:45.105Z,102468.75
2023-02-16T04:06:50.086Z,102470.50
2023-02-16T04:08:55.455Z,102472.25
2023-02-16T04:11:00.536Z,102490.47
2023-02-16T04:13:02.923Z,102473.13
2023-02-16T04:15:10.674Z,102480.97
2023-02-16T04:17:16.021Z,102472.25
2023-02-16T04:19:21.339Z,102474.00
2023-02-16T04:21:28.806Z,102476.56
2023-02-16T04:23:33.614Z,102472.25
2023-02-16T04:25:42.423Z,102475.72
2023-02-16T04:27:48.271Z,102467.91
2023-02-16T04:29:53.227Z,102467.91
2023-02-16T04:31:58.390Z,102466.16
2023-02-16T04:34:03.570Z,102466.16
2023-02-16T04:36:12.500Z,102464.44
2023-02-16T04:38:20.193Z,102462.69
2023-02-16T04:40:25.406Z,102457.47
2023-02-16T04:42:30.351Z,102461.81
2023-02-16T04:44:36.193Z,102461.78
2023-02-16T04:46:41.991Z,102465.31
2023-02-16T04:48:46.801Z,102462.69
2023-02-16T04:50:51.721Z,102459.19
2023-02-16T04:52:56.846Z,102458.31
2023-02-16T04:55:05.842Z,102454.78
2023-02-16T04:57:11.306Z,102457.44
2023-02-16T04:59:16.740Z,102458.31
2023-02-16T05:01:23.324Z,102454.88
2023-02-16T05:03:28.560Z,102450.50
2023-02-16T05:05:38.250Z,102450.50
2023-02-16T05:07:43.411Z,102446.16
2023-02-16T05:09:48.239Z,102446.16
2023-02-16T05:12:08.040Z,102449.66
2023-02-16T05:14:35.567Z,102439.25
2023-02-16T05:16:40.825Z,102440.97
2023-02-16T05:18:47.914Z,102437.50
2023-02-16T05:21:05.552Z,102440.09
2023-02-16T05:23:10.474Z,102440.09
2023-02-16T05:25:18.165Z,102435.78
2023-02-16T05:27:28.602Z,102430.56
2023-02-16T05:29:33.855Z,102440.13
2023-02-16T05:31:39.616Z,102438.34
2023-02-16T05:33:45.992Z,102442.78
2023-02-16T05:35:51.802Z,102442.75
2023-02-16T05:37:56.931Z,102442.75
2023-02-16T05:40:05.084Z,102448.84
2023-02-16T05:42:10.643Z,102441.91
2023-02-16T05:44:20.990Z,102446.25
2023-02-16T05:46:26.826Z,102432.38
2023-02-16T05:48:31.937Z,102437.56
2023-02-16T05:50:36.617Z,102422.78
2023-02-16T05:52:42.404Z,102443.66
2023-02-16T05:54:47.102Z,102446.28
2023-02-16T05:56:53.718Z,102453.25
2023-02-16T05:58:58.856Z,102443.66
2023-02-16T06:01:06.877Z,102435.81
2023-02-16T06:03:11.742Z,102444.53
2023-02-16T06:05:16.749Z,102439.31
2023-02-16T06:07:21.426Z,102447.97
2023-02-16T06:09:26.352Z,102439.25
2023-02-16T06:11:40.862Z,102435.81
2023-02-16T06:13:46.577Z,102442.78
2023-02-16T06:15:54.718Z,102441.94
2023-02-16T06:18:03.592Z,102446.28
2023-02-16T06:20:10.492Z,102443.72
2023-02-16T06:22:15.319Z,102448.06
2023-02-16T06:24:20.135Z,102438.50
2023-02-16T06:26:25.055Z,102442.84
2023-02-16T06:28:29.802Z,102435.88
2023-02-16T06:30:38.194Z,102439.38
2023-02-16T06:32:43.084Z,102443.75
2023-02-16T06:34:52.543Z,102453.31
2023-02-16T06:36:57.742Z,102442.84
2023-02-16T06:39:02.744Z,102450.69
2023-02-16T06:41:08.054Z,102446.34
2023-02-16T06:43:13.295Z,102451.53
2023-02-16T06:45:19.295Z,102456.75
2023-02-16T06:47:24.402Z,102460.25
2023-02-16T06:49:29.649Z,102461.13
2023-02-16T06:51:37.337Z,102468.94
2023-02-16T06:53:42.688Z,102468.09
2023-02-16T06:55:49.907Z,102472.47
2023-02-16T06:57:54.677Z,102470.75
2023-02-16T06:59:59.761Z,102464.63
2023-02-16T07:02:04.873Z,102468.97
2023-02-16T07:04:11.027Z,102467.28
2023-02-16T07:06:16.267Z,102473.34
2023-02-16T07:08:23.837Z,102475.09
2023-02-16T07:10:37.431Z,102475.13
2023-02-16T07:12:52.645Z,102474.25
2023-02-16T07:14:57.777Z,102471.66
2023-02-16T07:17:06.807Z,102469.91
2023-02-16T07:19:11.838Z,102470.81
2023-02-16T07:21:18.492Z,102473.41
2023-02-16T07:23:25.980Z,102467.34
2023-02-16T07:25:31.337Z,102471.72
2023-02-16T07:27:38.594Z,102475.22
2023-02-16T07:29:45.302Z,102483.91
2023-02-16T07:31:53.710Z,102480.44
2023-02-16T07:33:58.890Z,102481.31
2023-02-16T07:36:03.784Z,102483.94
2023-02-16T07:38:12.881Z,102490.03
2023-02-16T07:40:21.101Z,102489.13
2023-02-16T07:42:25.963Z,102498.72
2023-02-16T07:44:30.860Z,102494.38
2023-02-16T07:46:38.089Z,102504.81
2023-02-16T07:48:42.923Z,102503.09
2023-02-16T07:50:49.136Z,102503.97
2023-02-16T07:52:54.172Z,102507.44
2023-02-16T07:54:59.203Z,102515.28
2023-02-16T07:57:07.434Z,102511.78
2023-02-16T07:59:12.364Z,102519.63
2023-02-16T08:01:17.800Z,102510.06
2023-02-16T08:03:23.066Z,102518.75
2023-02-16T08:05:29.048Z,102519.63
2023-02-16T08:07:33.966Z,102516.16
2023-02-16T08:09:42.698Z,102518.72
2023-02-16T08:11:47.860Z,102524.84
2023-02-16T08:13:56.037Z,102521.38
2023-02-16T08:16:01.682Z,102527.47
2023-02-16T08:18:06.818Z,102519.63
2023-02-16T08:20:13.210Z,102518.75
2023-02-16T08:22:18.201Z,102524.84
2023-02-16T08:24:25.137Z,102520.47
2023-02-16T08:26:32.317Z,102526.56
2023-02-16T08:28:38.635Z,102529.19
2023-02-16T08:30:53.382Z,102529.19
2023-02-16T08:33:01.204Z,102524.81
2023-02-16T08:35:07.108Z,102532.66
2023-02-16T08:37:18.021Z,102535.28
2023-02-16T08:39:24.718Z,102532.63
2023-02-16T08:41:42.120Z,102531.78
2023-02-16T08:43:48.079Z,102527.44
2023-02-16T08:45:56.536Z,102532.66
2023-02-16T08:48:02.697Z,102524.00
2023-02-16T08:50:11.667Z,102519.66
2023-02-16T08:52:17.426Z,102525.78
2023-02-16T08:54:25.747Z,102525.78
2023-02-16T08:56:33.049Z,102530.13
2023-02-16T08:58:37.961Z,102531.03
2023-02-16T09:00:43.655Z,102519.72
2023-02-16T09:02:53.170Z,102524.06
2023-02-16T09:05:01.287Z,102518.84
2023-02-16T09:07:07.542Z,102518.88
2023-02-16T09:09:13.304Z,102514.50
2023-02-16T09:11:21.903Z,102521.47
2023-02-16T09:13:26.815Z,102526.69
2023-02-16T09:15:31.721Z,102522.38
2023-02-16T09:17:36.557Z,102521.47
2023-02-16T09:19:47.048Z,102527.59
2023-02-16T09:21:58.920Z,102511.91
2023-02-16T09:24:07.704Z,102518.00
2023-02-16T09:26:12.791Z,102518.00
2023-02-16T09:28:17.928Z,102512.78
2023-02-16T09:30:22.971Z,102519.75
2023-02-16T09:32:31.530Z,102516.28
2023-02-16T09:34:36.505Z,102518.03
2023-02-16T09:36:43.933Z,102522.34
2023-02-16T09:38:50.717Z,102517.13
2023-02-16T09:41:03.587Z,102518.00
2023-02-16T09:43:17.495Z,102516.25
2023-02-16T09:45:25.088Z,102504.91
2023-02-16T09:47:33.168Z,102507.47
2023-02-16T09:49:42.490Z,102499.63
2023-02-16T09:51:53.007Z,102493.50
2023-02-16T09:54:06.891Z,102501.38
2023-02-16T09:56:22.906Z,102497.88
2023-02-16T09:58:32.908Z,102497.84
2023-02-16T10:00:52.446Z,102504.81
2023-02-16T10:03:04.913Z,102497.88
2023-02-16T10:05:23.392Z,102503.09
2023-02-16T10:07:42.635Z,102493.47
2023-02-16T10:09:53.745Z,102498.72
2023-02-16T10:12:06.745Z,102480.41
2023-02-16T10:14:16.060Z,102483.88
2023-02-16T10:16:33.427Z,102483.88
2023-02-16T10:18:43.227Z,102482.09
2023-02-16T10:20:52.570Z,102476.03
2023-02-16T10:23:08.241Z,102476.00
2023-02-16T10:25:20.453Z,102480.34
2023-02-16T10:27:27.012Z,102490.78
2023-02-16T10:29:31.875Z,102485.53
2023-02-16T10:31:43.563Z,102486.44
2023-02-16T10:34:07.136Z,102484.63
2023-02-16T10:36:21.869Z,102475.91
2023-02-16T10:38:37.685Z,102489.00
2023-02-16T10:40:53.800Z,102486.34
2023-02-16T10:43:06.148Z,102490.72
2023-02-16T10:45:25.240Z,102489.84
2023-02-16T10:47:37.024Z,102495.94
2023-02-16T10:49:42.037Z,102487.16
2023-02-16T10:51:52.396Z,102495.00
2023-02-16T10:54:03.973Z,102498.53
2023-02-16T10:56:28.270Z,102495.88
2023-02-16T10:58:43.071Z,102495.75
2023-02-16T11:00:55.789Z,102485.97
2023-02-16T11:03:05.206Z,102485.91
2023-02-16T11:05:32.415Z,102484.00
2023-02-16T11:07:37.236Z,102471.81
2023-02-16T11:09:47.815Z,102473.06
2023-02-16T11:11:52.762Z,102471.13
2023-02-16T11:14:04.141Z,102474.47
2023-02-16T11:16:17.380Z,102472.72
2023-02-16T11:18:35.026Z,102479.75
2023-02-16T11:20:56.713Z,102480.59
2023-02-16T11:23:17.826Z,102477.03
2023-02-16T11:25:28.323Z,102467.41
2023-02-16T11:27:33.214Z,102470.66
2023-02-16T11:29:38.336Z,102476.66
2023-02-16T11:31:43.804Z,102469.63
2023-02-16T11:34:01.216Z,102472.09
2023-02-16T11:36:07.566Z,102468.72
2023-02-16T11:38:31.193Z,102463.41
2023-02-16T11:40:40.719Z,102469.56
2023-02-16T11:42:50.005Z,102459.97
2023-02-16T11:44:57.503Z,102458.97
2023-02-16T11:47:05.902Z,102451.78
2023-02-16T11:49:32.964Z,102448.94
2023-02-16T11:51:42.016Z,102445.28
2023-02-16T11:53:51.419Z,102441.69
2023-02-16T11:56:20.749Z,102441.94
2023-02-16T11:58:27.851Z,102440.09
2023-02-16T12:00:37.392Z,102435.59
2023-02-16T12:03:02.333Z,102430.31
2023-02-16T12:05:22.670Z,102427.47
2023-02-16T12:07:36.362Z,102418.69
2023-02-16T12:09:52.590Z,102417.72
2023-02-16T12:12:09.325Z,102416.22
2023-02-16T12:14:25.148Z,102400.00
2023-02-16T12:16:37.589Z,102401.69
2023-02-16T12:19:02.139Z,102397.44
2023-02-16T12:21:18.284Z,102395.16
2023-02-16T12:23:39.602Z,102395.03
2023-02-16T12:25:52.086Z,102386.44
2023-02-16T12:28:09.690Z,102385.50
2023-02-16T12:30:31.002Z,102391.56
2023-02-16T12:33:03.677Z,102380.69
2023-02-16T12:35:24.731Z,102370.03
2023-02-16T12:37:37.326Z,102381.56
2023-02-16T12:39:54.146Z,102383.13
2023-02-16T12:42:16.985Z,102379.91
2023-02-16T12:44:36.529Z,102381.34
2023-02-16T12:46:50.502Z,102380.16
2023-02-16T12:48:59.596Z,102370.63
2023-02-16T12:51:07.114Z,102368.28
2023-02-16T12:53:27.687Z,102379.84
2023-02-16T12:55:40.213Z,102374.38
2023-02-16T12:57:53.098Z,102366.56
2023-02-16T13:00:09.237Z,102365.59
2023-02-16T13:02:21.017Z,102367.75
2023-02-16T13:04:39.466Z,102356.16
2023-02-16T13:06:50.024Z,102347.34
2023-02-16T13:09:03.615Z,102340.56
2023-02-16T13:11:20.412Z,102339.72
2023-02-16T13:13:29.478Z,102333.47
2023-02-16T13:15:40.497Z,102320.53
2023-02-16T13:17:51.820Z,102324.88
2023-02-16T13:19:58.580Z,102319.69
2023-02-16T13:22:34.075Z,102323.31
2023-02-16T13:24:53.165Z,102315.13
2023-02-16T13:27:22.302Z,102327.56
2023-02-16T13:29:52.694Z,102314.47
2023-02-16T13:32:22.852Z,102325.88
2023-02-16T13:34:59.706Z,102315.53
2023-02-16T13:37:23.590Z,102294.22
2023-02-16T13:39:49.551Z,102299.63
2023-02-16T13:42:28.529Z,102297.25
2023-02-16T13:44:44.848Z,102295.56
2023-02-16T13:46:54.138Z,102290.94
2023-02-16T13:49:03.748Z,102293.78
2023-02-16T13:51:15.841Z,102290.16
2023-02-16T13:53:23.648Z,102278.13
2023-02-16T13:55:32.861Z,102273.81
2023-02-16T13:58:06.577Z,102278.00
2023-02-16T14:00:29.420Z,102277.00
2023-02-16T14:02:57.592Z,102261.06
2023-02-16T14:05:13.997Z,102265.50
2023-02-16T14:07:36.235Z,102271.03
2023-02-16T14:09:53.444Z,102264.84
2023-02-16T14:12:07.712Z,102266.72
2023-02-16T14:14:31.852Z,102257.03
2023-02-16T14:16:37.253Z,102269.31
2023-02-16T14:18:51.164Z,102260.66
2023-02-16T14:21:09.177Z,102255.28
2023-02-16T14:23:34.621Z,102258.03
2023-02-16T14:25:43.345Z,102252.88
2023-02-16T14:27:52.652Z,102255.41
2023-02-16T14:30:02.707Z,102255.41
2023-02-16T14:32:23.791Z,102261.75
2023-02-16T14:34:32.740Z,102256.53
2023-02-16T14:37:16.122Z,102262.75
2023-02-16T14:39:23.545Z,102264.81
2023-02-16T14:41:32.988Z,102264.03
2023-02-16T14:43:47.258Z,102258.75
2023-02-16T14:46:17.267Z,102261.50
2023-02-16T14:48:33.933Z,102262.59
2023-02-16T14:50:55.583Z,102262.63
2023-02-16T14:53:25.913Z,102255.63
2023-02-16T14:56:06.843Z,102262.66
2023-02-16T14:58:28.494Z,102260.03
2023-02-16T15:00:39.446Z,102256.53
2023-02-16T15:02:56.871Z,102254.81
2023-02-16T15:05:19.647Z,102249.56
2023-02-16T15:07:26.783Z,102257.44
2023-02-16T15:09:36.997Z,102238.31
2023-02-16T15:11:58.710Z,102250.66
2023-02-16T15:14:15.421Z,102243.81
2023-02-16T15:16:20.912Z,102241.13
2023-02-16T15:18:30.441Z,102246.53
2023-02-16T15:20:48.698Z,102249.06
2023-02-16T15:22:55.436Z,102241.13
2023-02-16T15:25:08.520Z,102242.94
2023-02-16T15:27:23.555Z,102244.75
2023-02-16T15:29:30.306Z,102251.78
2023-02-16T15:31:37.201Z,102247.44
2023-02-16T15:33:45.428Z,102251.00
2023-02-16T15:35:57.012Z,102255.44
2023-02-16T15:38:11.598Z,102254.50
2023-02-16T15:40:30.102Z,102258.00
2023-02-16T15:42:36.635Z,102251.94
2023-02-16T15:44:44.416Z,102259.84
2023-02-16T15:46:52.770Z,102258.09
2023-02-16T15:48:57.738Z,102254.66
2023-02-16T15:51:13.984Z,102261.66
2023-02-16T15:53:27.457Z,102255.56
2023-02-16T15:55:36.500Z,102253.88
2023-02-16T15:57:43.608Z,102251.31
2023-02-16T15:59:51.715Z,102247.88
2023-02-16T16:02:00.921Z,102249.59
2023-02-16T16:04:18.036Z,102256.59
2023-02-16T16:06:23.258Z,102241.81
2023-02-16T16:08:30.668Z,102249.72
2023-02-16T16:10:42.788Z,102237.53
2023-02-16T16:12:49.703Z,102243.72
2023-02-16T16:14:57.746Z,102245.53
2023-02-16T16:17:03.394Z,102234.13
2023-02-16T16:19:18.377Z,102242.00
2023-02-16T16:21:29.335Z,102238.59
2023-02-16T16:23:36.561Z,102237.69
2023-02-16T16:25:47.076Z,102234.22
2023-02-16T16:27:52.395Z,102234.22
2023-02-16T16:30:16.540Z,102233.34
2023-02-16T16:32:25.138Z,102230.81
2023-02-16T16:34:43.722Z,102232.53
2023-02-16T16:36:59.519Z,102228.16
2023-02-16T16:39:23.941Z,102224.69
2023-02-16T16:41:32.330Z,102229.03
2023-02-16T16:43:57.817Z,102224.66
2023-02-16T16:46:18.174Z,102218.53
2023-02-16T16:48:28.795Z,102207.22
2023-02-16T16:50:39.261Z,102201.94
2023-02-16T16:52:50.246Z,102203.69
2023-02-16T16:54:55.748Z,102200.25
2023-02-16T16:57:03.555Z,102197.59
2023-02-16T16:59:11.809Z,102199.34
2023-02-16T17:01:17.308Z,102202.94
2023-02-16T17:03:22.742Z,102188.91
2023-02-16T17:05:30.710Z,102192.41
2023-02-16T17:07:36.397Z,102197.59
2023-02-16T17:09:41.767Z,102194.13
2023-02-16T17:11:49.336Z,102202.84
2023-02-16T17:14:11.364Z,102198.50
2023-02-16T17:16:26.688Z,102198.44
2023-02-16T17:18:32.735Z,102190.63
2023-02-16T17:20:38.997Z,102189.78
2023-02-16T17:22:47.144Z,102180.16
2023-02-16T17:24:52.020Z,102185.34
2023-02-16T17:26:57.581Z,102185.34
2023-02-16T17:29:05.318Z,102194.94
2023-02-16T17:31:13.047Z,102181.81
2023-02-16T17:33:18.071Z,102180.97
2023-02-16T17:35:23.283Z,102186.25
2023-02-16T17:37:30.562Z,102188.81
2023-02-16T17:39:40.932Z,102184.44
2023-02-16T17:41:51.542Z,102176.56
2023-02-16T17:43:56.976Z,102180.97
2023-02-16T17:46:07.714Z,102182.69
2023-02-16T17:48:19.370Z,102173.94
2023-02-16T17:50:24.716Z,102167.81
2023-02-16T17:52:31.293Z,102175.69
2023-02-16T17:54:45.391Z,102174.78
2023-02-16T17:56:51.510Z,102187.91
2023-02-16T17:58:59.844Z,102184.44
2023-02-16T18:01:08.250Z,102183.56
2023-02-16T18:03:16.050Z,102181.81
2023-02-16T18:05:24.431Z,102186.13
2023-02-16T18:07:29.801Z,102186.16
2023-02-16T18:09:39.294Z,102176.53
2023-02-16T18:11:44.327Z,102174.75
2023-02-16T18:13:49.600Z,102160.84
2023-02-16T18:15:58.932Z,102162.53
2023-02-16T18:18:06.911Z,102180.06
2023-02-16T18:20:16.335Z,102167.81
2023-02-16T18:22:24.396Z,102175.66
2023-02-16T18:24:29.723Z,102181.81
2023-02-16T18:26:34.634Z,102185.34
2023-02-16T18:28:42.913Z,102187.94
2023-02-16T18:30:51.957Z,102178.34
2023-02-16T18:32:59.374Z,102170.53
2023-02-16T18:35:08.461Z,102183.56
2023-02-16T18:37:13.336Z,102187.06
2023-02-16T18:39:21.965Z,102190.59
2023-02-16T18:41:27.205Z,102186.19
2023-02-16T18:43:38.352Z,102179.19
2023-02-16T18:45:47.568Z,102185.31
2023-02-16T18:47:53.753Z,102183.56
2023-02-16T18:49:58.973Z,102180.09
2023-02-16T18:52:07.086Z,102180.06
2023-02-16T18:54:12.026Z,102185.28
2023-02-16T18:56:18.193Z,102189.63
2023-02-16T18:58:25.940Z,102182.72
2023-02-16T19:00:31.272Z,102183.53
2023-02-16T19:02:39.145Z,102190.53
2023-02-16T19:04:44.033Z,102191.41
2023-02-16T19:06:53.342Z,102199.28
2023-02-16T19:09:01.364Z,102192.31
2023-02-16T19:11:06.636Z,102190.59
2023-02-16T19:13:23.815Z,102199.28
2023-02-16T19:15:30.454Z,102190.44
2023-02-16T19:17:36.547Z,102189.53
2023-02-16T19:19:43.052Z,102202.66
2023-02-16T19:21:48.273Z,102200.91
2023-02-16T19:23:59.396Z,102194.75
2023-02-16T19:26:17.283Z,102182.53
2023-02-16T19:28:23.490Z,102168.56
2023-02-16T19:30:30.488Z,102175.53
2023-02-16T19:32:36.746Z,102177.25
2023-02-16T19:34:44.662Z,102178.09
2023-02-16T19:36:53.970Z,102175.47
2023-02-16T19:39:02.405Z,102176.28
2023-02-16T19:41:18.386Z,102171.06
2023-02-16T19:43:26.723Z,102167.56
2023-02-16T19:45:35.030Z,102178.06
2023-02-16T19:47:44.324Z,102185.03
2023-02-16T19:49:51.239Z,102179.72
2023-02-16T19:51:56.865Z,102176.25
2023-02-16T19:54:08.519Z,102178.91
2023-02-16T19:56:19.488Z,102165.75
2023-02-16T19:58:29.547Z,102161.41
2023-02-16T20:00:37.107Z,102161.41
2023-02-16T20:02:42.492Z,102160.53
2023-02-16T20:04:48.144Z,102160.56
2023-02-16T20:06:56.660Z,102161.41
2023-02-16T20:09:07.913Z,102171.84
2023-02-16T20:11:15.812Z,102166.59
2023-02-16T20:13:21.160Z,102167.47
2023-02-16T20:15:29.826Z,102160.44
2023-02-16T20:17:40.325Z,102156.13
2023-02-16T20:19:46.544Z,102160.50
2023-02-16T20:21:52.265Z,102154.34
2023-02-16T20:24:02.597Z,102152.59
2023-02-16T20:26:10.509Z,102158.75
2023-02-16T20:28:26.818Z,102150.00
2023-02-16T20:30:32.237Z,102160.44
2023-02-16T20:32:40.811Z,102163.97
2023-02-16T20:35:01.972Z,102174.47
2023-02-16T20:37:10.178Z,102160.53
2023-02-16T20:39:15.572Z,102168.44
2023-02-16T20:41:32.035Z,102167.59
2023-02-16T20:43:50.986Z,102171.09
2023-02-16T20:45:56.740Z,102169.38
2023-02-16T20:48:10.088Z,102178.09
2023-02-16T20:50:21.672Z,102182.44
2023-02-16T20:52:27.907Z,102182.44
2023-02-16T20:54:39.334Z,102172.81
2023-02-16T20:56:46.562Z,102171.06
2023-02-16T20:59:16.276Z,102172.84
2023-02-16T21:01:32.316Z,102172.81
2023-02-16T21:03:57.252Z,102173.72
2023-02-16T21:06:19.391Z,102164.19
2023-02-16T21:08:33.346Z,102171.06
2023-02-16T21:10:46.305Z,102172.81
2023-02-16T21:49:50.957Z,102167.72
2023-02-16T21:54:57.220Z,102165.09
2023-02-16T21:57:06.234Z,102157.22
2023-02-16T21:59:20.031Z,102151.97
2023-02-16T22:01:26.552Z,102153.72
2023-02-16T22:03:33.423Z,102147.63
2023-02-16T22:16:04.621Z,102138.06
2023-02-16T22:18:12.764Z,102140.72
2023-02-16T22:20:21.265Z,102134.63
2023-02-16T22:22:36.415Z,102131.13
2023-02-16T22:24:47.947Z,102137.19
2023-02-16T22:26:53.614Z,102141.59
2023-02-16T22:29:05.139Z,102141.53
2023-02-16T22:31:16.055Z,102143.31
2023-02-16T22:33:33.997Z,102143.31
2023-02-16T22:35:40.720Z,102145.06
2023-02-16T22:37:45.958Z,102147.63
2023-02-16T22:40:01.763Z,102142.44
2023-02-16T22:42:09.903Z,102148.56
2023-02-16T22:44:20.378Z,102145.13
2023-02-16T22:46:28.069Z,102140.72
2023-02-16T22:48:38.493Z,102142.53
2023-02-16T22:50:46.834Z,102143.41
2023-02-16T22:53:05.330Z,102139.91
2023-02-16T22:55:15.997Z,102140.81
2023-02-16T22:57:22.805Z,102157.41
2023-02-16T22:59:56.000Z,102149.50
2023-02-16T23:13:09.571Z,102147.84
2023-02-16T23:15:32.214Z,102156.66
2023-02-16T23:17:51.376Z,102153.97
2023-02-16T23:20:22.383Z,102150.50
2023-02-16T23:22:34.635Z,102148.75
2023-02-16T23:25:12.940Z,102140.91
2023-02-16T23:30:25.018Z,102129.63
2023-02-16T23:33:16.071Z,102141.81
2023-02-16T23:35:33.713Z,102140.09
2023-02-16T23:37:45.001Z,102139.25
2023-02-16T23:39:55.006Z,102149.66
2023-02-16T23:42:19.678Z,102152.34
2023-02-16T23:44:35.643Z,102152.41
2023-02-16T23:46:47.455Z,102149.78
2023-02-16T23:49:55.431Z,102141.91
2023-02-16T23:52:54.608Z,102145.47
2023-02-16T23:58:06.831Z,102149.13
